TimeCST,TemperatureF,Dew PointF,Humidity,Sea Level PressureIn,VisibilityMPH,Wind Direction,Wind SpeedMPH,Gust SpeedMPH,PrecipitationIn,Events,Conditions,WindDirDegrees,DateUTC
12:55 AM,53.6,42.8,67,29.98,10.0,West,9.2,-,N/A,,Clear,260,2013-02-11 06:55:00
1:55 AM,51.8,37.4,58,30.00,10.0,West,4.6,-,N/A,,Clear,270,2013-02-11 07:55:00
2:15 AM,53.6,35.6,51,30.00,10.0,West,6.9,-,N/A,,Clear,280,2013-02-11 08:15:00
2:35 AM,51.8,35.6,54,30.01,10.0,WNW,8.1,-,N/A,,Clear,290,2013-02-11 08:35:00
2:55 AM,51.8,35.6,54,30.02,10.0,WNW,9.2,-,N/A,,Clear,300,2013-02-11 08:55:00
3:15 AM,50.0,35.6,58,30.03,10.0,WNW,8.1,-,N/A,,Clear,300,2013-02-11 09:15:00
3:35 AM,48.2,35.6,62,30.04,10.0,WNW,6.9,-,N/A,,Clear,300,2013-02-11 09:35:00
3:55 AM,48.2,35.6,62,30.05,10.0,WNW,9.2,-,N/A,,Clear,300,2013-02-11 09:55:00
4:15 AM,48.2,33.8,58,30.06,10.0,WNW,10.4,-,N/A,,Clear,300,2013-02-11 10:15:00
4:35 AM,46.4,33.8,62,30.06,10.0,WNW,9.2,-,N/A,,Clear,300,2013-02-11 10:35:00
4:55 AM,46.4,33.8,62,30.07,10.0,WNW,11.5,-,N/A,,Clear,300,2013-02-11 10:55:00
5:55 AM,44.6,32.0,61,30.10,10.0,NW,8.1,-,N/A,,Clear,310,2013-02-11 11:55:00
6:55 AM,44.6,30.2,57,30.11,10.0,Variable,3.5,-,N/A,,Clear,0,2013-02-11 12:55:00
7:55 AM,44.6,30.2,57,30.15,10.0,Calm,Calm,-,N/A,,Clear,0,2013-02-11 13:55:00
8:55 AM,46.4,33.8,62,30.17,10.0,Calm,Calm,-,N/A,,Mostly Cloudy,0,2013-02-11 14:55:00
9:55 AM,46.4,30.2,53,30.19,10.0,Calm,Calm,-,N/A,,Mostly Cloudy,0,2013-02-11 15:55:00
10:55 AM,50.0,30.2,47,30.19,10.0,West,4.6,-,N/A,,Mostly Cloudy,270,2013-02-11 16:55:00
11:55 AM,51.8,32.0,47,30.20,10.0,Calm,Calm,-,N/A,,Scattered Clouds,0,2013-02-11 17:55:00
12:55 PM,53.6,32.0,44,30.16,10.0,WNW,3.5,-,N/A,,Scattered Clouds,290,2013-02-11 18:55:00
1:55 PM,55.4,30.2,38,30.14,10.0,Calm,Calm,-,N/A,,Scattered Clouds,0,2013-02-11 19:55:00
2:55 PM,57.2,30.2,36,30.13,10.0,Calm,Calm,-,N/A,,Scattered Clouds,0,2013-02-11 20:55:00
3:55 PM,55.4,30.2,38,30.12,10.0,NNW,5.8,-,N/A,,Scattered Clouds,330,2013-02-11 21:55:00
4:55 PM,51.8,33.8,50,30.13,10.0,WNW,5.8,-,N/A,,Scattered Clouds,300,2013-02-11 22:55:00
5:55 PM,48.2,35.6,62,30.11,10.0,NW,4.6,-,N/A,,Mostly Cloudy,320,2013-02-11 23:55:00
6:55 PM,46.4,35.6,66,30.13,10.0,Calm,Calm,-,N/A,,Mostly Cloudy,0,2013-02-12 00:55:00
7:55 PM,46.4,35.6,66,30.15,10.0,Calm,Calm,-,N/A,,Mostly Cloudy,0,2013-02-12 01:55:00
8:55 PM,44.6,37.4,76,30.17,10.0,Calm,Calm,-,N/A,,Mostly Cloudy,0,2013-02-12 02:55:00
9:55 PM,42.8,39.2,87,30.16,10.0,Calm,Calm,-,N/A,,Mostly Cloudy,0,2013-02-12 03:55:00
10:55 PM,44.6,39.2,81,30.16,10.0,Calm,Calm,-,N/A,,Mostly Cloudy,0,2013-02-12 04:55:00
11:55 PM,42.8,37.4,81,30.15,10.0,Calm,Calm,-,N/A,,Mostly Cloudy,0,2013-02-12 05:55:00